sensor_id;sensor_type;location;lat;lon;timestamp;pressure;altitude;pressure_sealevel;temperature;humidity
6090;BME280;3073;42.660;23.316;2023-01-09T00:01:20;94794.25;;;1.55;100.00
6090;BME280;3073;42.660;23.316;2023-01-09T00:03:47;94791.81;;;1.47;100.00
6090;BME280;3073;42.660;23.316;2023-01-09T00:06:15;94790.88;;;1.48;100.00
6090;BME280;3073;42.660;23.316;2023-01-09T00:08:42;94790.94;;;1.26;100.00
6090;BME280;3073;42.660;23.316;2023-01-09T00:11:09;94794.63;;;1.15;100.00
6090;BME280;3073;42.660;23.316;2023-01-09T00:13:37;94791.53;;;1.13;100.00
6090;BME280;3073;42.660;23.316;2023-01-09T00:16:04;94780.06;;;1.11;100.00
6090;BME280;3073;42.660;23.316;2023-01-09T00:18:32;94781.53;;;1.05;100.00
6090;BME280;3073;42.660;23.316;2023-01-09T00:20:59;94777.47;;;1.04;100.00
6090;BME280;3073;42.660;23.316;2023-01-09T00:23:27;94783.00;;;0.99;100.00
6090;BME280;3073;42.660;23.316;2023-01-09T00:26:01;94777.78;;;1.01;100.00
6090;BME280;3073;42.660;23.316;2023-01-09T00:28:28;94775.63;;;0.98;100.00
6090;BME280;3073;42.660;23.316;2023-01-09T00:30:55;94782.47;;;1.04;100.00
6090;BME280;3073;42.660;23.316;2023-01-09T00:33:24;94776.56;;;0.82;100.00
6090;BME280;3073;42.660;23.316;2023-01-09T00:35:52;94785.03;;;0.59;100.00
6090;BME280;3073;42.660;23.316;2023-01-09T00:38:18;94782.25;;;0.53;100.00
6090;BME280;3073;42.660;23.316;2023-01-09T00:40:47;94780.97;;;0.58;100.00
6090;BME280;3073;42.660;23.316;2023-01-09T00:43:14;94779.63;;;0.70;100.00
6090;BME280;3073;42.660;23.316;2023-01-09T00:45:41;94773.84;;;0.69;100.00
6090;BME280;3073;42.660;23.316;2023-01-09T00:48:11;94772.66;;;0.57;100.00
6090;BME280;3073;42.660;23.316;2023-01-09T00:50:39;94774.66;;;0.62;100.00
6090;BME280;3073;42.660;23.316;2023-01-09T00:53:09;94773.94;;;0.76;100.00
6090;BME280;3073;42.660;23.316;2023-01-09T00:55:37;94778.06;;;0.69;100.00
6090;BME280;3073;42.660;23.316;2023-01-09T00:58:07;94782.22;;;0.31;100.00
6090;BME280;3073;42.660;23.316;2023-01-09T01:00:34;94777.84;;;0.02;100.00
6090;BME280;3073;42.660;23.316;2023-01-09T01:03:01;94772.50;;;0.05;100.00
6090;BME280;3073;42.660;23.316;2023-01-09T01:05:28;94775.09;;;0.20;100.00
6090;BME280;3073;42.660;23.316;2023-01-09T01:08:13;94778.66;;;0.25;100.00
6090;BME280;3073;42.660;23.316;2023-01-09T01:10:40;94766.41;;;0.30;100.00
6090;BME280;3073;42.660;23.316;2023-01-09T01:13:09;94767.69;;;0.49;100.00
6090;BME280;3073;42.660;23.316;2023-01-09T01:15:37;94763.41;;;0.58;100.00
6090;BME280;3073;42.660;23.316;2023-01-09T01:18:05;94756.50;;;0.60;100.00
6090;BME280;3073;42.660;23.316;2023-01-09T01:20:32;94751.47;;;0.60;100.00
6090;BME280;3073;42.660;23.316;2023-01-09T01:22:58;94753.47;;;0.64;100.00
6090;BME280;3073;42.660;23.316;2023-01-09T01:25:25;94751.69;;;0.87;100.00
6090;BME280;3073;42.660;23.316;2023-01-09T01:27:52;94757.09;;;0.99;100.00
6090;BME280;3073;42.660;23.316;2023-01-09T01:30:20;94759.00;;;0.97;100.00
6090;BME280;3073;42.660;23.316;2023-01-09T01:32:47;94752.16;;;0.91;100.00
6090;BME280;3073;42.660;23.316;2023-01-09T01:35:14;94747.31;;;0.89;100.00
6090;BME280;3073;42.660;23.316;2023-01-09T01:37:42;94742.09;;;0.91;100.00
6090;BME280;3073;42.660;23.316;2023-01-09T01:40:10;94742.31;;;0.67;100.00
6090;BME280;3073;42.660;23.316;2023-01-09T01:42:45;94732.78;;;0.77;100.00
6090;BME280;3073;42.660;23.316;2023-01-09T01:45:14;94731.25;;;0.76;100.00
6090;BME280;3073;42.660;23.316;2023-01-09T01:47:48;94735.66;;;0.74;100.00
6090;BME280;3073;42.660;23.316;2023-01-09T01:50:25;94734.03;;;0.81;100.00
6090;BME280;3073;42.660;23.316;2023-01-09T01:52:58;94725.34;;;0.69;100.00
6090;BME280;3073;42.660;23.316;2023-01-09T01:55:27;94714.16;;;0.57;100.00
6090;BME280;3073;42.660;23.316;2023-01-09T01:57:59;94718.28;;;0.49;100.00
6090;BME280;3073;42.660;23.316;2023-01-09T02:00:31;94719.69;;;0.52;100.00
6090;BME280;3073;42.660;23.316;2023-01-09T02:03:01;94708.84;;;0.51;100.00
6090;BME280;3073;42.660;23.316;2023-01-09T02:05:28;94706.84;;;0.47;100.00
6090;BME280;3073;42.660;23.316;2023-01-09T02:07:55;94702.91;;;0.52;100.00
6090;BME280;3073;42.660;23.316;2023-01-09T02:10:23;94698.81;;;0.51;100.00
6090;BME280;3073;42.660;23.316;2023-01-09T02:12:50;94688.88;;;0.58;100.00
6090;BME280;3073;42.660;23.316;2023-01-09T02:15:18;94696.69;;;0.63;100.00
6090;BME280;3073;42.660;23.316;2023-01-09T02:20:46;94701.09;;;0.61;100.00
6090;BME280;3073;42.660;23.316;2023-01-09T02:23:47;94707.28;;;0.50;100.00
6090;BME280;3073;42.660;23.316;2023-01-09T02:27:06;94705.75;;;0.49;100.00
6090;BME280;3073;42.660;23.316;2023-01-09T02:32:52;94707.88;;;0.38;100.00
6090;BME280;3073;42.660;23.316;2023-01-09T02:35:31;94697.72;;;0.31;100.00
6090;BME280;3073;42.660;23.316;2023-01-09T02:38:09;94694.59;;;0.29;100.00
6090;BME280;3073;42.660;23.316;2023-01-09T02:40:43;94688.94;;;0.13;100.00
6090;BME280;3073;42.660;23.316;2023-01-09T02:43:13;94686.31;;;0.06;100.00
6090;BME280;3073;42.660;23.316;2023-01-09T02:45:40;94685.00;;;0.10;100.00
6090;BME280;3073;42.660;23.316;2023-01-09T02:48:09;94689.59;;;0.07;100.00
6090;BME280;3073;42.660;23.316;2023-01-09T02:50:41;94682.56;;;0.02;100.00
6090;BME280;3073;42.660;23.316;2023-01-09T02:56:32;94679.81;;;-0.11;100.00
6090;BME280;3073;42.660;23.316;2023-01-09T02:59:15;94683.28;;;-0.12;100.00
6090;BME280;3073;42.660;23.316;2023-01-09T03:01:53;94683.00;;;-0.17;100.00
6090;BME280;3073;42.660;23.316;2023-01-09T03:04:29;94680.94;;;-0.14;100.00
6090;BME280;3073;42.660;23.316;2023-01-09T03:07:08;94684.66;;;-0.10;100.00
6090;BME280;3073;42.660;23.316;2023-01-09T03:09:40;94676.53;;;-0.12;100.00
6090;BME280;3073;42.660;23.316;2023-01-09T03:12:12;94681.63;;;0.03;100.00
6090;BME280;3073;42.660;23.316;2023-01-09T03:14:45;94680.63;;;0.12;100.00
6090;BME280;3073;42.660;23.316;2023-01-09T03:17:17;94677.63;;;0.17;100.00
6090;BME280;3073;42.660;23.316;2023-01-09T03:19:48;94679.72;;;0.28;100.00
6090;BME280;3073;42.660;23.316;2023-01-09T03:22:17;94682.56;;;0.25;100.00
6090;BME280;3073;42.660;23.316;2023-01-09T03:24:43;94689.94;;;0.26;100.00
6090;BME280;3073;42.660;23.316;2023-01-09T03:27:10;94684.56;;;0.29;100.00
6090;BME280;3073;42.660;23.316;2023-01-09T03:29:38;94682.41;;;0.26;100.00
6090;BME280;3073;42.660;23.316;2023-01-09T03:32:05;94679.56;;;0.29;100.00
6090;BME280;3073;42.660;23.316;2023-01-09T03:34:32;94678.47;;;0.24;100.00
6090;BME280;3073;42.660;23.316;2023-01-09T03:37:00;94678.31;;;0.25;100.00
6090;BME280;3073;42.660;23.316;2023-01-09T03:39:28;94680.00;;;0.33;100.00
6090;BME280;3073;42.660;23.316;2023-01-09T03:41:56;94674.66;;;0.36;100.00
6090;BME280;3073;42.660;23.316;2023-01-09T03:44:23;94678.31;;;0.25;100.00
6090;BME280;3073;42.660;23.316;2023-01-09T03:46:50;94683.38;;;0.17;100.00
6090;BME280;3073;42.660;23.316;2023-01-09T03:49:17;94684.56;;;0.29;100.00
6090;BME280;3073;42.660;23.316;2023-01-09T03:51:44;94678.00;;;0.28;100.00
6090;BME280;3073;42.660;23.316;2023-01-09T03:54:12;94695.09;;;0.02;100.00
6090;BME280;3073;42.660;23.316;2023-01-09T03:56:39;94688.03;;;0.06;100.00
6090;BME280;3073;42.660;23.316;2023-01-09T03:59:06;94680.72;;;-0.04;100.00
6090;BME280;3073;42.660;23.316;2023-01-09T04:01:32;94686.41;;;-0.10;100.00
6090;BME280;3073;42.660;23.316;2023-01-09T04:03:59;94678.66;;;-0.01;100.00
6090;BME280;3073;42.660;23.316;2023-01-09T04:06:26;94676.06;;;-0.07;100.00
6090;BME280;3073;42.660;23.316;2023-01-09T04:08:53;94683.16;;;0.04;100.00
6090;BME280;3073;42.660;23.316;2023-01-09T04:11:21;94686.22;;;0.14;100.00
6090;BME280;3073;42.660;23.316;2023-01-09T04:13:48;94688.41;;;0.17;100.00
6090;BME280;3073;42.660;23.316;2023-01-09T04:16:15;94687.31;;;0.20;100.00
6090;BME280;3073;42.660;23.316;2023-01-09T04:18:42;94675.63;;;0.27;100.00
6090;BME280;3073;42.660;23.316;2023-01-09T04:21:09;94677.06;;;0.29;100.00
6090;BME280;3073;42.660;23.316;2023-01-09T04:23:36;94674.53;;;0.29;100.00
6090;BME280;3073;42.660;23.316;2023-01-09T04:26:03;94675.94;;;0.32;100.00
6090;BME280;3073;42.660;23.316;2023-01-09T04:28:32;94681.44;;;0.27;100.00
6090;BME280;3073;42.660;23.316;2023-01-09T04:30:58;94683.69;;;0.22;100.00
6090;BME280;3073;42.660;23.316;2023-01-09T04:33:26;94671.72;;;0.10;100.00
6090;BME280;3073;42.660;23.316;2023-01-09T04:35:53;94677.78;;;-0.08;100.00
6090;BME280;3073;42.660;23.316;2023-01-09T04:38:20;94680.16;;;-0.14;100.00
6090;BME280;3073;42.660;23.316;2023-01-09T04:40:47;94669.91;;;-0.05;100.00
6090;BME280;3073;42.660;23.316;2023-01-09T04:43:14;94663.78;;;-0.02;100.00
6090;BME280;3073;42.660;23.316;2023-01-09T04:45:42;94659.81;;;0.04;100.00
6090;BME280;3073;42.660;23.316;2023-01-09T04:48:09;94662.44;;;0.10;100.00
6090;BME280;3073;42.660;23.316;2023-01-09T04:50:36;94660.91;;;0.09;100.00
6090;BME280;3073;42.660;23.316;2023-01-09T04:53:03;94661.59;;;0.18;100.00
6090;BME280;3073;42.660;23.316;2023-01-09T04:55:30;94655.53;;;0.12;100.00
6090;BME280;3073;42.660;23.316;2023-01-09T04:57:57;94656.44;;;0.19;100.00
6090;BME280;3073;42.660;23.316;2023-01-09T05:00:24;94651.91;;;0.15;100.00
6090;BME280;3073;42.660;23.316;2023-01-09T05:02:52;94656.88;;;0.23;100.00
6090;BME280;3073;42.660;23.316;2023-01-09T05:05:19;94655.91;;;0.24;100.00
6090;BME280;3073;42.660;23.316;2023-01-09T05:07:46;94656.25;;;0.21;100.00
6090;BME280;3073;42.660;23.316;2023-01-09T05:10:12;94663.50;;;0.16;100.00
6090;BME280;3073;42.660;23.316;2023-01-09T05:12:39;94666.59;;;0.03;100.00
6090;BME280;3073;42.660;23.316;2023-01-09T05:15:11;94665.63;;;0.04;100.00
6090;BME280;3073;42.660;23.316;2023-01-09T05:17:38;94661.81;;;-0.37;100.00
6090;BME280;3073;42.660;23.316;2023-01-09T05:20:07;94669.41;;;-0.54;100.00
6090;BME280;3073;42.660;23.316;2023-01-09T05:22:34;94676.59;;;-0.50;100.00
6090;BME280;3073;42.660;23.316;2023-01-09T05:25:01;94669.91;;;-0.66;100.00
6090;BME280;3073;42.660;23.316;2023-01-09T05:27:28;94668.53;;;-0.69;100.00
6090;BME280;3073;42.660;23.316;2023-01-09T05:29:55;94668.44;;;-0.53;100.00
6090;BME280;3073;42.660;23.316;2023-01-09T05:32:22;94663.09;;;-0.49;100.00
6090;BME280;3073;42.660;23.316;2023-01-09T05:34:49;94661.81;;;-0.37;100.00
6090;BME280;3073;42.660;23.316;2023-01-09T05:37:17;94653.44;;;-0.30;100.00
6090;BME280;3073;42.660;23.316;2023-01-09T05:39:44;94657.41;;;-0.13;100.00
6090;BME280;3073;42.660;23.316;2023-01-09T05:42:10;94650.00;;;-0.06;100.00
6090;BME280;3073;42.660;23.316;2023-01-09T05:44:40;94655.38;;;-0.09;100.00
6090;BME280;3073;42.660;23.316;2023-01-09T05:47:07;94655.13;;;0.00;100.00
6090;BME280;3073;42.660;23.316;2023-01-09T05:49:34;94648.13;;;-0.04;100.00
6090;BME280;3073;42.660;23.316;2023-01-09T05:52:01;94646.72;;;-0.07;100.00
6090;BME280;3073;42.660;23.316;2023-01-09T05:54:29;94643.91;;;-0.04;100.00
6090;BME280;3073;42.660;23.316;2023-01-09T05:56:56;94644.66;;;-0.03;100.00
6090;BME280;3073;42.660;23.316;2023-01-09T05:59:23;94654.69;;;-0.03;100.00
6090;BME280;3073;42.660;23.316;2023-01-09T06:01:50;94656.25;;;-0.02;100.00
6090;BME280;3073;42.660;23.316;2023-01-09T06:04:17;94650.53;;;-0.11;100.00
6090;BME280;3073;42.660;23.316;2023-01-09T06:06:44;94650.22;;;0.07;100.00
6090;BME280;3073;42.660;23.316;2023-01-09T06:09:11;94645.66;;;0.11;100.00
6090;BME280;3073;42.660;23.316;2023-01-09T06:11:39;94649.25;;;0.16;100.00
6090;BME280;3073;42.660;23.316;2023-01-09T06:14:06;94636.84;;;0.15;100.00
6090;BME280;3073;42.660;23.316;2023-01-09T06:16:33;94646.22;;;0.21;100.00
6090;BME280;3073;42.660;23.316;2023-01-09T06:19:00;94641.59;;;0.32;100.00
6090;BME280;3073;42.660;23.316;2023-01-09T06:21:27;94651.78;;;0.31;100.00
6090;BME280;3073;42.660;23.316;2023-01-09T06:23:54;94645.66;;;0.33;100.00
6090;BME280;3073;42.660;23.316;2023-01-09T06:26:22;94638.28;;;0.32;100.00
6090;BME280;3073;42.660;23.316;2023-01-09T06:28:50;94642.19;;;0.34;100.00
6090;BME280;3073;42.660;23.316;2023-01-09T06:31:20;94645.31;;;0.36;100.00
6090;BME280;3073;42.660;23.316;2023-01-09T06:33:46;94644.28;;;0.45;100.00
6090;BME280;3073;42.660;23.316;2023-01-09T06:36:14;94639.81;;;0.56;100.00
6090;BME280;3073;42.660;23.316;2023-01-09T06:38:41;94643.28;;;0.69;100.00
6090;BME280;3073;42.660;23.316;2023-01-09T06:41:08;94644.84;;;0.85;100.00
6090;BME280;3073;42.660;23.316;2023-01-09T06:43:35;94639.41;;;0.96;100.00
6090;BME280;3073;42.660;23.316;2023-01-09T06:46:03;94634.19;;;0.97;100.00
6090;BME280;3073;42.660;23.316;2023-01-09T06:48:31;94649.16;;;1.20;100.00
6090;BME280;3073;42.660;23.316;2023-01-09T06:50:57;94645.94;;;1.41;100.00
6090;BME280;3073;42.660;23.316;2023-01-09T06:53:24;94647.31;;;1.58;100.00
6090;BME280;3073;42.660;23.316;2023-01-09T06:55:51;94651.19;;;1.61;100.00
6090;BME280;3073;42.660;23.316;2023-01-09T06:58:18;94652.81;;;1.68;100.00
6090;BME280;3073;42.660;23.316;2023-01-09T07:00:44;94651.84;;;2.05;100.00
6090;BME280;3073;42.660;23.316;2023-01-09T07:03:14;94651.91;;;2.33;100.00
6090;BME280;3073;42.660;23.316;2023-01-09T07:05:44;94653.63;;;2.88;100.00
6090;BME280;3073;42.660;23.316;2023-01-09T07:08:10;94652.81;;;3.15;100.00
6090;BME280;3073;42.660;23.316;2023-01-09T07:10:39;94651.88;;;3.63;100.00
6090;BME280;3073;42.660;23.316;2023-01-09T07:13:05;94655.09;;;4.11;100.00
6090;BME280;3073;42.660;23.316;2023-01-09T07:15:32;94649.09;;;4.45;100.00
6090;BME280;3073;42.660;23.316;2023-01-09T07:17:58;94640.16;;;4.56;100.00
6090;BME280;3073;42.660;23.316;2023-01-09T07:20:26;94644.38;;;4.95;100.00
6090;BME280;3073;42.660;23.316;2023-01-09T07:22:54;94647.75;;;4.56;100.00
6090;BME280;3073;42.660;23.316;2023-01-09T07:25:20;94653.19;;;4.46;100.00
6090;BME280;3073;42.660;23.316;2023-01-09T07:27:47;94657.06;;;4.16;100.00
6090;BME280;3073;42.660;23.316;2023-01-09T07:30:16;94639.09;;;3.72;100.00
6090;BME280;3073;42.660;23.316;2023-01-09T07:32:42;94636.63;;;3.37;100.00
6090;BME280;3073;42.660;23.316;2023-01-09T07:35:09;94634.34;;;3.01;100.00
6090;BME280;3073;42.660;23.316;2023-01-09T07:37:46;94639.63;;;2.79;100.00
6090;BME280;3073;42.660;23.316;2023-01-09T07:40:13;94644.84;;;2.77;100.00
6090;BME280;3073;42.660;23.316;2023-01-09T07:42:39;94644.22;;;2.69;100.00
6090;BME280;3073;42.660;23.316;2023-01-09T07:45:07;94646.41;;;2.78;100.00
6090;BME280;3073;42.660;23.316;2023-01-09T07:47:40;94649.25;;;2.69;100.00
6090;BME280;3073;42.660;23.316;2023-01-09T07:50:10;94654.50;;;2.74;100.00
6090;BME280;3073;42.660;23.316;2023-01-09T07:52:37;94661.94;;;2.82;100.00
6090;BME280;3073;42.660;23.316;2023-01-09T07:55:06;94663.72;;;2.88;100.00
6090;BME280;3073;42.660;23.316;2023-01-09T07:57:32;94671.75;;;3.04;100.00
6090;BME280;3073;42.660;23.316;2023-01-09T07:59:59;94665.94;;;3.38;100.00
6090;BME280;3073;42.660;23.316;2023-01-09T08:02:27;94663.06;;;3.48;100.00
6090;BME280;3073;42.660;23.316;2023-01-09T08:04:54;94662.63;;;3.92;100.00
6090;BME280;3073;42.660;23.316;2023-01-09T08:07:20;94664.81;;;4.21;100.00
6090;BME280;3073;42.660;23.316;2023-01-09T08:09:47;94666.38;;;4.22;100.00
6090;BME280;3073;42.660;23.316;2023-01-09T08:12:15;94665.94;;;3.99;100.00
6090;BME280;3073;42.660;23.316;2023-01-09T08:14:41;94661.47;;;4.01;100.00
6090;BME280;3073;42.660;23.316;2023-01-09T08:17:08;94661.78;;;3.72;100.00
6090;BME280;3073;42.660;23.316;2023-01-09T08:19:35;94661.63;;;3.73;100.00
6090;BME280;3073;42.660;23.316;2023-01-09T08:22:02;94658.22;;;4.20;100.00
6090;BME280;3073;42.660;23.316;2023-01-09T08:24:29;94666.38;;;4.35;100.00
6090;BME280;3073;42.660;23.316;2023-01-09T08:26:57;94659.53;;;5.01;100.00
6090;BME280;3073;42.660;23.316;2023-01-09T08:29:27;94656.56;;;5.24;100.00
6090;BME280;3073;42.660;23.316;2023-01-09T08:31:54;94663.56;;;5.93;100.00
6090;BME280;3073;42.660;23.316;2023-01-09T08:34:21;94663.84;;;6.65;100.00
6090;BME280;3073;42.660;23.316;2023-01-09T08:36:48;94667.41;;;7.62;100.00
6090;BME280;3073;42.660;23.316;2023-01-09T08:39:14;94671.03;;;8.14;100.00
6090;BME280;3073;42.660;23.316;2023-01-09T08:41:41;94672.28;;;8.53;100.00
6090;BME280;3073;42.660;23.316;2023-01-09T08:44:26;94671.56;;;8.87;100.00
6090;BME280;3073;42.660;23.316;2023-01-09T08:47:19;94668.03;;;9.00;100.00
6090;BME280;3073;42.660;23.316;2023-01-09T08:49:46;94666.44;;;9.22;100.00
6090;BME280;3073;42.660;23.316;2023-01-09T08:52:13;94659.97;;;9.66;100.00
6090;BME280;3073;42.660;23.316;2023-01-09T08:54:39;94670.59;;;10.03;97.18
6090;BME280;3073;42.660;23.316;2023-01-09T08:57:06;94661.69;;;10.17;95.61
6090;BME280;3073;42.660;23.316;2023-01-09T08:59:34;94659.34;;;10.60;91.97
6090;BME280;3073;42.660;23.316;2023-01-09T09:02:01;94641.75;;;11.14;85.18
6090;BME280;3073;42.660;23.316;2023-01-09T09:04:28;94639.88;;;11.26;81.61
6090;BME280;3073;42.660;23.316;2023-01-09T09:06:55;94640.34;;;11.23;80.15
6090;BME280;3073;42.660;23.316;2023-01-09T09:09:21;94638.19;;;11.75;76.53
6090;BME280;3073;42.660;23.316;2023-01-09T09:11:50;94634.06;;;12.22;71.77
6090;BME280;3073;42.660;23.316;2023-01-09T09:14:17;94632.06;;;12.29;69.76
6090;BME280;3073;42.660;23.316;2023-01-09T09:17:11;94625.91;;;12.57;67.43
6090;BME280;3073;42.660;23.316;2023-01-09T09:19:38;94618.03;;;12.32;67.00
6090;BME280;3073;42.660;23.316;2023-01-09T09:22:14;94616.34;;;12.48;65.43
6090;BME280;3073;42.660;23.316;2023-01-09T09:24:41;94608.16;;;12.82;65.12
6090;BME280;3073;42.660;23.316;2023-01-09T09:27:08;94612.28;;;12.88;64.13
6090;BME280;3073;42.660;23.316;2023-01-09T09:29:35;94604.53;;;12.73;63.74
6090;BME280;3073;42.660;23.316;2023-01-09T09:32:01;94609.22;;;13.28;62.45
6090;BME280;3073;42.660;23.316;2023-01-09T09:34:29;94594.69;;;13.44;62.37
6090;BME280;3073;42.660;23.316;2023-01-09T09:36:56;94582.56;;;12.82;63.46
6090;BME280;3073;42.660;23.316;2023-01-09T09:39:26;94585.72;;;12.58;64.66
6090;BME280;3073;42.660;23.316;2023-01-09T09:41:59;94564.16;;;11.63;68.53
6090;BME280;3073;42.660;23.316;2023-01-09T09:44:50;94561.25;;;11.76;71.21
6090;BME280;3073;42.660;23.316;2023-01-09T09:47:24;94558.28;;;12.16;68.77
6090;BME280;3073;42.660;23.316;2023-01-09T09:49:59;94544.28;;;12.24;66.81
6090;BME280;3073;42.660;23.316;2023-01-09T09:52:29;94532.72;;;11.36;69.75
6090;BME280;3073;42.660;23.316;2023-01-09T09:55:03;94533.66;;;11.08;73.05
6090;BME280;3073;42.660;23.316;2023-01-09T09:57:33;94523.94;;;10.83;76.10
6090;BME280;3073;42.660;23.316;2023-01-09T10:00:02;94513.44;;;11.50;73.91
6090;BME280;3073;42.660;23.316;2023-01-09T10:02:31;94503.97;;;11.24;74.09
6090;BME280;3073;42.660;23.316;2023-01-09T10:05:10;94500.13;;;11.48;75.32
6090;BME280;3073;42.660;23.316;2023-01-09T10:07:40;94479.28;;;11.61;73.17
6090;BME280;3073;42.660;23.316;2023-01-09T10:10:09;94484.38;;;11.29;73.39
6090;BME280;3073;42.660;23.316;2023-01-09T10:12:41;94474.28;;;11.18;73.71
6090;BME280;3073;42.660;23.316;2023-01-09T10:15:13;94473.81;;;10.77;77.97
6090;BME280;3073;42.660;23.316;2023-01-09T10:17:44;94474.09;;;11.24;75.74
6090;BME280;3073;42.660;23.316;2023-01-09T10:20:23;94461.97;;;11.36;72.89
6090;BME280;3073;42.660;23.316;2023-01-09T10:22:58;94450.75;;;11.69;72.10
6090;BME280;3073;42.660;23.316;2023-01-09T10:25:30;94469.28;;;12.13;70.27
6090;BME280;3073;42.660;23.316;2023-01-09T10:30:49;94455.91;;;12.48;68.99
6090;BME280;3073;42.660;23.316;2023-01-09T10:33:23;94446.47;;;13.11;66.39
6090;BME280;3073;42.660;23.316;2023-01-09T10:36:01;94456.53;;;13.37;63.42
6090;BME280;3073;42.660;23.316;2023-01-09T10:38:32;94449.34;;;12.62;65.03
6090;BME280;3073;42.660;23.316;2023-01-09T10:41:01;94440.72;;;12.26;66.48
6090;BME280;3073;42.660;23.316;2023-01-09T10:43:31;94447.03;;;13.38;63.80
6090;BME280;3073;42.660;23.316;2023-01-09T10:46:00;94435.19;;;12.50;65.88
6090;BME280;3073;42.660;23.316;2023-01-09T10:48:29;94431.88;;;12.49;66.44
6090;BME280;3073;42.660;23.316;2023-01-09T10:50:59;94425.84;;;12.70;66.58
6090;BME280;3073;42.660;23.316;2023-01-09T10:53:26;94431.88;;;13.21;65.33
6090;BME280;3073;42.660;23.316;2023-01-09T10:55:56;94416.53;;;13.31;63.55
6090;BME280;3073;42.660;23.316;2023-01-09T10:58:26;94404.88;;;12.83;64.48
6090;BME280;3073;42.660;23.316;2023-01-09T11:00:53;94397.00;;;11.59;69.30
6090;BME280;3073;42.660;23.316;2023-01-09T11:03:21;94403.31;;;11.78;72.44
6090;BME280;3073;42.660;23.316;2023-01-09T11:05:49;94386.47;;;11.82;71.40
6090;BME280;3073;42.660;23.316;2023-01-09T11:08:20;94387.03;;;12.42;69.09
6090;BME280;3073;42.660;23.316;2023-01-09T11:10:49;94377.25;;;12.96;66.42
6090;BME280;3073;42.660;23.316;2023-01-09T11:13:18;94381.44;;;13.67;64.29
6090;BME280;3073;42.660;23.316;2023-01-09T11:15:44;94376.78;;;14.10;61.48
6090;BME280;3073;42.660;23.316;2023-01-09T11:18:18;94376.25;;;14.13;60.52
6090;BME280;3073;42.660;23.316;2023-01-09T11:20:46;94381.44;;;13.42;61.96
6090;BME280;3073;42.660;23.316;2023-01-09T11:23:27;94383.50;;;12.48;64.77
6090;BME280;3073;42.660;23.316;2023-01-09T11:25:55;94368.34;;;11.52;69.79
6090;BME280;3073;42.660;23.316;2023-01-09T11:28:22;94374.16;;;11.48;72.75
6090;BME280;3073;42.660;23.316;2023-01-09T11:30:55;94366.94;;;10.81;78.37
6090;BME280;3073;42.660;23.316;2023-01-09T11:33:24;94365.50;;;10.63;82.51
6090;BME280;3073;42.660;23.316;2023-01-09T11:36:01;94363.00;;;10.25;85.95
6090;BME280;3073;42.660;23.316;2023-01-09T11:38:31;94358.56;;;9.99;93.82
6090;BME280;3073;42.660;23.316;2023-01-09T11:41:12;94352.50;;;10.05;95.41
6090;BME280;3073;42.660;23.316;2023-01-09T11:43:42;94352.91;;;9.58;99.35
6090;BME280;3073;42.660;23.316;2023-01-09T11:46:10;94355.38;;;9.53;100.00
6090;BME280;3073;42.660;23.316;2023-01-09T11:48:55;94351.06;;;9.54;100.00
6090;BME280;3073;42.660;23.316;2023-01-09T11:51:22;94361.69;;;9.51;100.00
6090;BME280;3073;42.660;23.316;2023-01-09T11:56:36;94344.94;;;9.71;100.00
6090;BME280;3073;42.660;23.316;2023-01-09T11:59:07;94339.25;;;10.68;93.74
6090;BME280;3073;42.660;23.316;2023-01-09T12:04:21;94335.81;;;11.74;77.72
6090;BME280;3073;42.660;23.316;2023-01-09T12:07:00;94343.28;;;11.49;76.13
6090;BME280;3073;42.660;23.316;2023-01-09T12:09:33;94340.41;;;10.33;85.82
6090;BME280;3073;42.660;23.316;2023-01-09T12:12:03;94323.75;;;9.88;93.47
6090;BME280;3073;42.660;23.316;2023-01-09T12:14:39;94329.78;;;9.26;100.00
6090;BME280;3073;42.660;23.316;2023-01-09T12:17:27;94314.81;;;9.30;100.00
6090;BME280;3073;42.660;23.316;2023-01-09T12:20:17;94304.75;;;10.60;91.64
6090;BME280;3073;42.660;23.316;2023-01-09T12:22:48;94309.50;;;11.42;83.12
6090;BME280;3073;42.660;23.316;2023-01-09T12:25:22;94298.50;;;12.30;75.78
6090;BME280;3073;42.660;23.316;2023-01-09T12:28:00;94299.91;;;12.99;70.63
6090;BME280;3073;42.660;23.316;2023-01-09T12:30:39;94299.09;;;12.68;69.39
6090;BME280;3073;42.660;23.316;2023-01-09T12:33:13;94297.31;;;12.78;69.88
6090;BME280;3073;42.660;23.316;2023-01-09T12:35:44;94291.72;;;12.97;68.37
6090;BME280;3073;42.660;23.316;2023-01-09T12:38:14;94294.38;;;12.19;70.01
6090;BME280;3073;42.660;23.316;2023-01-09T12:40:52;94293.72;;;11.50;74.20
6090;BME280;3073;42.660;23.316;2023-01-09T12:43:26;94278.06;;;11.36;75.35
6090;BME280;3073;42.660;23.316;2023-01-09T12:45:59;94297.69;;;10.99;78.43
6090;BME280;3073;42.660;23.316;2023-01-09T12:48:40;94279.44;;;10.85;81.27
6090;BME280;3073;42.660;23.316;2023-01-09T12:54:04;94267.19;;;10.07;91.85
6090;BME280;3073;42.660;23.316;2023-01-09T12:56:36;94268.75;;;10.35;90.74
6090;BME280;3073;42.660;23.316;2023-01-09T12:59:11;94272.09;;;10.36;90.16
6090;BME280;3073;42.660;23.316;2023-01-09T13:01:54;94256.50;;;10.10;95.77
6090;BME280;3073;42.660;23.316;2023-01-09T13:04:26;94256.63;;;9.99;94.58
6090;BME280;3073;42.660;23.316;2023-01-09T13:06:56;94255.91;;;9.81;98.67
6090;BME280;3073;42.660;23.316;2023-01-09T13:09:25;94252.66;;;9.86;100.00
6090;BME280;3073;42.660;23.316;2023-01-09T13:12:01;94256.25;;;9.68;100.00
6090;BME280;3073;42.660;23.316;2023-01-09T13:17:25;94255.53;;;9.35;100.00
6090;BME280;3073;42.660;23.316;2023-01-09T13:19:52;94244.44;;;9.24;100.00
6090;BME280;3073;42.660;23.316;2023-01-09T13:22:19;94255.19;;;8.93;100.00
6090;BME280;3073;42.660;23.316;2023-01-09T13:27:33;94236.91;;;8.62;100.00
6090;BME280;3073;42.660;23.316;2023-01-09T13:30:05;94233.84;;;8.60;100.00
6090;BME280;3073;42.660;23.316;2023-01-09T13:32:38;94229.72;;;8.59;100.00
6090;BME280;3073;42.660;23.316;2023-01-09T13:35:10;94231.06;;;8.78;100.00
6090;BME280;3073;42.660;23.316;2023-01-09T13:37:38;94246.16;;;8.85;100.00
6090;BME280;3073;42.660;23.316;2023-01-09T13:40:06;94238.00;;;8.83;100.00
6090;BME280;3073;42.660;23.316;2023-01-09T13:42:53;94244.97;;;8.43;100.00
6090;BME280;3073;42.660;23.316;2023-01-09T13:45:20;94242.91;;;8.28;100.00
6090;BME280;3073;42.660;23.316;2023-01-09T13:50:30;94227.69;;;8.45;100.00
6090;BME280;3073;42.660;23.316;2023-01-09T13:52:58;94241.06;;;8.68;100.00